createdAt,value
2018-12-02T00:00:52.352Z,75.87
2018-12-02T00:03:20.551Z,76.09
2018-12-02T00:05:49.293Z,76.29
2018-12-02T00:08:18.504Z,76.38
2018-12-02T00:10:47.272Z,77.27
2018-12-02T00:13:16.047Z,76.59
2018-12-02T00:15:44.889Z,77.23
2018-12-02T00:18:14.401Z,77.37
2018-12-02T00:20:43.632Z,77.37
2018-12-02T00:23:12.493Z,77.32
2018-12-02T00:25:41.303Z,77.43
2018-12-02T00:28:11.067Z,77.31
2018-12-02T00:30:40.726Z,77.03
2018-12-02T00:33:09.616Z,77.34
2018-12-02T00:35:38.418Z,77.53
2018-12-02T00:38:08.761Z,77.04
2018-12-02T00:40:37.555Z,76.25
2018-12-02T00:43:07.904Z,76.31
2018-12-02T00:45:38.197Z,76.68
2018-12-02T00:48:09.008Z,76.17
2018-12-02T00:50:38.428Z,76.20
2018-12-02T00:53:08.773Z,76.58
2018-12-02T00:55:40.044Z,76.72
2018-12-02T00:58:15.304Z,76.74
2018-12-02T01:00:44.168Z,77.04
2018-12-02T01:03:13.124Z,76.82
2018-12-02T01:05:41.931Z,77.06
2018-12-02T01:08:10.693Z,77.44
2018-12-02T01:10:39.575Z,77.28
2018-12-02T01:13:10.327Z,77.41
2018-12-02T01:15:40.370Z,76.82
2018-12-02T01:18:09.755Z,77.43
2018-12-02T01:20:39.478Z,77.06
2018-12-02T01:23:09.091Z,76.74
2018-12-02T01:25:38.076Z,77.17
2018-12-02T01:28:07.428Z,76.91
2018-12-02T01:30:36.825Z,77.57
2018-12-02T01:33:05.791Z,76.64
2018-12-02T01:35:34.602Z,77.15
2018-12-02T01:38:03.475Z,76.81
2018-12-02T01:40:32.269Z,76.48
2018-12-02T01:43:01.133Z,77.42
2018-12-02T01:45:29.994Z,77.02
2018-12-02T01:47:58.804Z,77.05
2018-12-02T01:50:27.836Z,76.56
2018-12-02T01:52:57.942Z,76.96
2018-12-02T01:55:26.712Z,77.06
2018-12-02T01:57:55.561Z,77.39
2018-12-02T02:00:25.706Z,77.96
2018-12-02T02:02:55.582Z,77.33
2018-12-02T02:05:25.263Z,77.59
2018-12-02T02:07:54.073Z,77.46
2018-12-02T02:10:27.089Z,77.31
2018-12-02T02:12:55.952Z,77.52
2018-12-02T02:15:25.065Z,77.37
2018-12-02T02:17:53.919Z,77.10
2018-12-02T02:20:24.774Z,77.52
2018-12-02T02:22:54.075Z,77.46
2018-12-02T02:25:24.800Z,77.58
2018-12-02T02:27:56.642Z,77.41
2018-12-02T02:30:26.557Z,77.22
2018-12-02T02:32:55.357Z,77.30
2018-12-02T02:35:24.234Z,77.45
2018-12-02T02:37:54.316Z,77.20
2018-12-02T02:40:25.111Z,77.84
2018-12-02T02:42:53.973Z,77.61
2018-12-02T02:45:22.771Z,77.87
2018-12-02T02:47:51.609Z,77.79
2018-12-02T02:50:22.615Z,76.97
2018-12-02T02:53:03.211Z,77.39
2018-12-02T02:55:32.008Z,76.62
2018-12-02T02:58:00.774Z,77.19
2018-12-02T03:00:30.070Z,76.78
2018-12-02T03:02:59.068Z,76.23
2018-12-02T03:05:27.897Z,76.41
2018-12-02T03:07:56.710Z,76.72
2018-12-02T03:10:25.514Z,76.83
2018-12-02T03:12:54.786Z,75.98
2018-12-02T03:15:24.264Z,76.29
2018-12-02T03:17:53.115Z,76.40
2018-12-02T03:20:22.892Z,76.03
2018-12-02T03:22:52.806Z,76.08
2018-12-02T03:25:23.509Z,76.22
2018-12-02T03:27:52.854Z,77.02
2018-12-02T03:30:22.532Z,77.33
2018-12-02T03:32:51.732Z,77.30
2018-12-02T03:35:22.260Z,77.34
2018-12-02T03:37:51.366Z,77.61
2018-12-02T03:40:21.959Z,77.33
2018-12-02T03:42:51.442Z,77.29
2018-12-02T03:45:21.411Z,76.93
2018-12-02T03:47:50.230Z,77.48
2018-12-02T03:50:22.872Z,76.66
2018-12-02T03:52:52.126Z,77.20
2018-12-02T03:55:20.973Z,77.18
2018-12-02T03:57:49.791Z,77.17
2018-12-02T04:00:26.344Z,77.02
2018-12-02T04:02:56.545Z,77.30
2018-12-02T04:05:26.314Z,76.95
2018-12-02T04:07:55.130Z,76.51
2018-12-02T04:10:24.140Z,77.27
2018-12-02T04:12:53.475Z,77.00
2018-12-02T04:15:23.145Z,77.65
2018-12-02T04:17:51.993Z,77.90
2018-12-02T04:20:21.472Z,78.38
2018-12-02T04:22:51.333Z,78.96
2018-12-02T04:25:25.130Z,78.00
2018-12-02T04:27:53.943Z,78.71
2018-12-02T04:30:23.433Z,78.31
2018-12-02T04:32:53.045Z,78.58
2018-12-02T04:35:25.491Z,78.19
2018-12-02T04:37:54.342Z,78.10
2018-12-02T04:40:23.146Z,77.88
2018-12-02T04:42:52.345Z,77.60
2018-12-02T04:45:21.363Z,77.82
2018-12-02T04:47:50.425Z,77.27
2018-12-02T04:50:21.498Z,77.24
2018-12-02T04:52:50.353Z,77.36
2018-12-02T04:55:19.174Z,77.50
2018-12-02T04:57:47.966Z,77.38
2018-12-02T05:00:17.731Z,77.08
2018-12-02T05:02:48.541Z,77.29
2018-12-02T05:05:18.537Z,77.84
2018-12-02T05:07:47.375Z,77.48
2018-12-02T05:10:17.856Z,77.73
2018-12-02T05:12:46.771Z,78.20
2018-12-02T05:15:16.575Z,77.89
2018-12-02T05:17:45.444Z,77.58
2018-12-02T05:20:18.451Z,77.24
2018-12-02T05:22:47.260Z,77.87
2018-12-02T05:25:17.835Z,77.49
2018-12-02T05:27:45.577Z,77.84
2018-12-02T05:30:22.735Z,77.49
2018-12-02T05:32:52.462Z,77.20
2018-12-02T05:35:21.322Z,77.56
2018-12-02T05:37:50.465Z,77.61
2018-12-02T05:40:21.287Z,77.27
2018-12-02T05:42:50.231Z,77.43
2018-12-02T05:45:19.894Z,77.98
2018-12-02T05:47:48.744Z,77.76
2018-12-02T05:50:18.594Z,77.06
2018-12-02T05:52:54.915Z,76.92
2018-12-02T05:55:25.761Z,77.92
2018-12-02T05:57:54.636Z,77.38
2018-12-02T06:00:23.753Z,77.63
2018-12-02T06:02:52.558Z,77.05
2018-12-02T06:05:21.559Z,77.43
2018-12-02T06:07:50.396Z,77.59
2018-12-02T06:10:21.108Z,77.59
2018-12-02T06:12:50.116Z,77.55
2018-12-02T06:15:19.835Z,77.49
2018-12-02T06:17:48.824Z,77.57
2018-12-02T06:20:22.730Z,76.92
2018-12-02T06:22:53.327Z,76.90
2018-12-02T06:25:22.249Z,77.47
2018-12-02T06:27:51.322Z,77.23
2018-12-02T06:30:25.021Z,77.57
2018-12-02T06:33:03.575Z,77.21
2018-12-02T06:35:32.428Z,77.42
2018-12-02T06:38:02.556Z,77.95
2018-12-02T06:40:31.455Z,77.42
2018-12-02T06:43:00.321Z,77.53
2018-12-02T06:45:29.201Z,77.09
2018-12-02T06:47:58.307Z,76.85
2018-12-02T06:50:27.953Z,76.76
2018-12-02T06:52:57.682Z,76.07
2018-12-02T06:55:40.578Z,76.56
2018-12-02T06:58:31.958Z,75.88
2018-12-02T07:01:19.344Z,76.21
2018-12-02T07:03:53.937Z,75.58
2018-12-02T07:06:22.914Z,75.00
2018-12-02T07:08:51.693Z,74.92
2018-12-02T07:11:20.464Z,75.62
2018-12-02T07:13:49.312Z,76.25
2018-12-02T07:16:18.094Z,74.60
2018-12-02T07:18:49.131Z,74.38
2018-12-02T07:21:21.088Z,73.98
2018-12-02T07:23:54.340Z,74.14
2018-12-02T07:26:25.484Z,73.71
2018-12-02T07:28:54.332Z,73.62
2018-12-02T07:31:23.146Z,73.22
2018-12-02T07:33:51.993Z,73.54
2018-12-02T07:36:20.831Z,73.33
2018-12-02T07:39:00.388Z,73.22
2018-12-02T07:41:29.220Z,72.78
2018-12-02T07:43:58.030Z,72.97
2018-12-02T07:46:26.814Z,72.40
2018-12-02T07:48:55.896Z,72.48
2018-12-02T07:51:24.724Z,71.54
2018-12-02T07:53:53.660Z,71.42
2018-12-02T07:56:22.470Z,71.54
2018-12-02T07:58:51.366Z,71.85
2018-12-02T08:01:20.214Z,71.07
2018-12-02T08:03:49.047Z,70.91
2018-12-02T08:06:17.836Z,70.45
2018-12-02T08:08:46.657Z,69.69
2018-12-02T08:11:15.509Z,69.47
2018-12-02T08:13:44.302Z,69.95
2018-12-02T08:16:13.119Z,69.63
2018-12-02T08:18:41.936Z,69.23
2018-12-02T08:21:10.719Z,69.50
2018-12-02T08:23:39.469Z,68.95
2018-12-02T08:26:08.293Z,69.10
2018-12-02T08:28:37.082Z,68.59
2018-12-02T08:31:06.006Z,68.51
2018-12-02T08:33:34.804Z,68.71
2018-12-02T08:36:03.601Z,68.64
2018-12-02T08:38:32.377Z,69.42
2018-12-02T08:41:01.226Z,68.31
2018-12-02T08:43:30.076Z,68.71
2018-12-02T08:45:58.973Z,68.64
2018-12-02T08:48:27.800Z,68.12
2018-12-02T08:50:56.612Z,68.80
2018-12-02T08:53:25.447Z,68.50
2018-12-02T08:55:54.272Z,68.05
2018-12-02T08:58:23.123Z,67.75
2018-12-02T09:00:51.927Z,68.17
2018-12-02T09:03:20.681Z,67.78
2018-12-02T09:05:49.514Z,68.29
2018-12-02T09:08:18.389Z,67.65
2018-12-02T09:10:47.269Z,68.08
2018-12-02T09:13:16.170Z,67.63
2018-12-02T09:15:45.050Z,68.09
2018-12-02T09:18:13.864Z,67.33
2018-12-02T09:20:42.683Z,68.17
2018-12-02T09:23:13.202Z,67.24
2018-12-02T09:25:41.843Z,67.06
2018-12-02T09:28:10.724Z,67.66
2018-12-02T09:30:39.707Z,67.26
2018-12-02T09:33:08.569Z,67.39
2018-12-02T09:35:37.374Z,67.10
2018-12-02T09:38:06.880Z,67.95
2018-12-02T09:40:35.664Z,67.37
2018-12-02T09:43:04.932Z,66.91
2018-12-02T09:45:33.795Z,66.91
2018-12-02T09:48:02.660Z,66.23
2018-12-02T09:50:31.465Z,66.25
2018-12-02T09:53:00.325Z,66.22
2018-12-02T09:55:30.990Z,66.39
2018-12-02T09:57:59.960Z,66.68
2018-12-02T10:00:33.891Z,66.77
2018-12-02T10:02:57.677Z,66.15
2018-12-02T10:05:26.509Z,65.97
2018-12-02T10:07:55.318Z,65.54
2018-12-02T10:10:24.252Z,65.45
2018-12-02T10:13:02.007Z,65.60
2018-12-02T10:15:30.881Z,65.24
2018-12-02T10:17:59.704Z,65.14
2018-12-02T10:20:28.571Z,65.31
2018-12-02T10:22:57.334Z,65.25
2018-12-02T10:25:26.272Z,65.44
2018-12-02T10:27:55.082Z,65.32
2018-12-02T10:30:24.898Z,64.87
2018-12-02T10:32:55.868Z,64.98
2018-12-02T10:35:24.736Z,64.96
2018-12-02T10:37:54.305Z,64.65
2018-12-02T10:40:25.081Z,64.85
2018-12-02T10:42:54.075Z,65.47
2018-12-02T10:45:24.155Z,64.75
2018-12-02T10:48:00.551Z,64.49
2018-12-02T10:50:34.401Z,65.17
2018-12-02T10:53:06.172Z,65.70
2018-12-02T10:55:44.529Z,65.77
2018-12-02T10:58:18.577Z,65.58
2018-12-02T11:00:53.167Z,65.32
2018-12-02T11:03:22.064Z,65.73
2018-12-02T11:05:50.948Z,65.81
2018-12-02T11:08:19.975Z,65.41
2018-12-02T11:10:48.861Z,65.59
2018-12-02T11:13:17.708Z,65.49
2018-12-02T11:15:46.547Z,65.00
2018-12-02T11:18:16.048Z,65.35
2018-12-02T11:20:45.351Z,65.49
2018-12-02T11:23:14.333Z,65.25
2018-12-02T11:25:43.296Z,65.19
2018-12-02T11:28:12.296Z,65.34
2018-12-02T11:30:41.303Z,65.19
2018-12-02T11:33:09.873Z,65.43
2018-12-02T11:35:38.827Z,65.58
2018-12-02T11:38:08.752Z,65.64
2018-12-02T11:40:38.578Z,65.11
2018-12-02T11:43:08.346Z,65.03
2018-12-02T11:45:37.260Z,64.98
2018-12-02T11:48:07.412Z,64.78
2018-12-02T11:50:36.321Z,64.78
2018-12-02T11:53:05.416Z,64.90
2018-12-02T11:55:34.285Z,64.71
2018-12-02T11:58:03.529Z,64.67
2018-12-02T12:00:33.652Z,64.15
2018-12-02T12:03:02.628Z,63.98
2018-12-02T12:05:31.516Z,64.23
2018-12-02T12:08:00.351Z,64.14
2018-12-02T12:10:29.535Z,63.84
2018-12-02T12:13:00.538Z,63.72
2018-12-02T12:15:30.342Z,63.40
2018-12-02T12:17:59.844Z,63.57
2018-12-02T12:20:31.870Z,63.29
2018-12-02T12:23:00.783Z,63.32
2018-12-02T12:25:32.676Z,63.37
2018-12-02T12:28:01.570Z,63.41
2018-12-02T12:30:31.627Z,63.35
2018-12-02T12:33:00.512Z,62.73
2018-12-02T12:35:29.335Z,63.13
2018-12-02T12:37:58.250Z,63.46
2018-12-02T12:40:28.586Z,63.35
2018-12-02T12:43:04.908Z,63.21
2018-12-02T12:45:33.736Z,62.73
2018-12-02T12:48:02.900Z,63.22
2018-12-02T12:50:32.037Z,63.75
2018-12-02T12:53:00.928Z,63.88
2018-12-02T12:55:29.676Z,63.78
2018-12-02T12:57:59.145Z,63.78
2018-12-02T13:00:27.987Z,63.90
2018-12-02T13:02:56.763Z,63.59
2018-12-02T13:05:27.804Z,63.59
2018-12-02T13:07:57.137Z,63.47
2018-12-02T13:10:26.137Z,64.12
2018-12-02T13:12:55.145Z,63.78
2018-12-02T13:15:24.692Z,63.69
2018-12-02T13:18:01.099Z,63.91
2018-12-02T13:20:40.464Z,63.79
2018-12-02T13:23:09.450Z,63.48
2018-12-02T13:25:38.416Z,63.58
2018-12-02T13:28:08.024Z,63.63
2018-12-02T13:30:36.892Z,63.07
2018-12-02T13:33:06.856Z,63.70
2018-12-02T13:35:36.320Z,63.67
2018-12-02T13:38:05.438Z,63.56
2018-12-02T13:40:34.578Z,63.32
2018-12-02T13:43:05.625Z,63.39
2018-12-02T13:45:34.531Z,63.74
2018-12-02T13:48:03.654Z,63.46
2018-12-02T13:50:32.514Z,63.74
2018-12-02T13:53:01.302Z,63.70
2018-12-02T13:55:31.269Z,64.18
2018-12-02T13:58:01.089Z,63.86
2018-12-02T14:00:31.030Z,64.34
2018-12-02T14:03:04.117Z,64.14
2018-12-02T14:05:33.085Z,63.78
2018-12-02T14:08:01.959Z,63.49
2018-12-02T14:10:31.221Z,63.26
2018-12-02T14:13:01.565Z,63.31
2018-12-02T14:15:36.946Z,63.74
2018-12-02T14:18:11.879Z,63.87
2018-12-02T14:20:40.720Z,63.66
2018-12-02T14:23:09.510Z,63.93
2018-12-02T14:25:38.563Z,63.88
2018-12-02T14:28:08.092Z,64.96
2018-12-02T14:30:37.081Z,66.29
2018-12-02T14:33:06.396Z,67.57
2018-12-02T14:35:35.246Z,68.90
2018-12-02T14:38:04.159Z,69.77
2018-12-02T14:40:33.031Z,70.19
2018-12-02T14:43:01.983Z,70.43
2018-12-02T14:45:30.876Z,71.07
2018-12-02T14:47:59.757Z,71.39
2018-12-02T14:50:28.600Z,71.36
2018-12-02T14:52:57.529Z,71.79
2018-12-02T14:55:26.343Z,72.24
2018-12-02T14:57:55.867Z,72.46
2018-12-02T15:00:24.750Z,72.66
2018-12-02T15:02:53.568Z,72.96
2018-12-02T15:05:22.381Z,73.32
2018-12-02T15:07:51.269Z,73.39
2018-12-02T15:10:20.171Z,73.59
2018-12-02T15:12:49.601Z,73.80
2018-12-02T15:15:19.146Z,73.85
2018-12-02T15:17:48.865Z,74.11
2018-12-02T15:20:19.395Z,74.58
2018-12-02T15:22:48.253Z,74.75
2018-12-02T15:25:17.126Z,74.49
2018-12-02T15:27:47.065Z,74.53
2018-12-02T15:30:17.356Z,74.25
2018-12-02T15:32:53.689Z,74.41
2018-12-02T15:35:22.516Z,74.61
2018-12-02T15:37:51.334Z,74.95
2018-12-02T15:40:20.256Z,74.91
2018-12-02T15:42:50.418Z,75.01
2018-12-02T15:45:20.025Z,74.94
2018-12-02T15:47:48.862Z,75.39
2018-12-02T15:50:19.605Z,75.29
2018-12-02T15:52:48.764Z,75.50
2018-12-02T15:55:20.835Z,75.57
2018-12-02T15:57:49.768Z,76.03
2018-12-02T16:07:08.703Z,76.56
2018-12-02T16:09:37.557Z,76.52
2018-12-02T16:12:06.687Z,77.08
2018-12-02T16:14:35.786Z,76.95
2018-12-02T16:17:04.577Z,77.27
2018-12-02T16:19:33.372Z,77.11
2018-12-02T16:22:02.258Z,76.92
2018-12-02T16:24:32.351Z,76.70
2018-12-02T16:27:01.686Z,76.64
2018-12-02T16:29:30.449Z,76.94
2018-12-02T16:32:02.130Z,76.89
2018-12-02T16:34:30.930Z,77.21
2018-12-02T16:36:59.742Z,77.56
2018-12-02T16:39:28.650Z,77.38
2018-12-02T16:41:57.516Z,78.02
2018-12-02T16:44:26.681Z,77.46
2018-12-02T16:46:55.689Z,77.81
2018-12-02T16:49:24.534Z,77.59
2018-12-02T16:51:53.417Z,77.77
2018-12-02T16:54:22.219Z,78.24
2018-12-02T16:56:51.769Z,77.63
2018-12-02T16:59:27.090Z,78.01
2018-12-02T17:01:58.004Z,78.10
2018-12-02T17:04:26.987Z,78.18
2018-12-02T17:06:55.814Z,78.36
2018-12-02T17:09:25.483Z,77.83
2018-12-02T17:11:54.466Z,77.92
2018-12-02T17:14:23.283Z,78.10
2018-12-02T17:16:52.063Z,79.00
2018-12-02T17:19:21.842Z,78.37
2018-12-02T17:21:50.790Z,77.85
2018-12-02T17:24:19.695Z,77.95
2018-12-02T17:26:48.520Z,78.36
2018-12-02T17:29:18.973Z,78.08
2018-12-02T17:32:07.798Z,78.46
2018-12-02T17:34:36.608Z,78.29
2018-12-02T17:37:05.648Z,78.31
2018-12-02T17:39:36.281Z,78.05
2018-12-02T17:42:08.633Z,78.33
2018-12-02T17:44:37.901Z,78.32
2018-12-02T17:47:07.262Z,79.06
2018-12-02T17:49:36.112Z,78.66
2018-12-02T17:52:05.534Z,79.05
2018-12-02T17:54:35.050Z,79.00
2018-12-02T17:57:03.969Z,78.53
2018-12-02T17:59:32.720Z,78.51
2018-12-02T18:02:01.661Z,78.94
2018-12-02T18:04:30.596Z,79.10
2018-12-02T18:06:59.440Z,78.69
2018-12-02T18:09:28.279Z,79.09
2018-12-02T18:11:57.093Z,78.87
2018-12-02T18:14:25.983Z,78.91
2018-12-02T18:16:54.868Z,79.30
2018-12-02T18:19:23.729Z,78.98
2018-12-02T18:21:52.601Z,78.98
2018-12-02T18:24:21.495Z,79.44
2018-12-02T18:26:50.279Z,79.59
2018-12-02T18:29:19.140Z,78.95
2018-12-02T18:31:48.069Z,79.01
2018-12-02T18:34:16.993Z,79.58
2018-12-02T18:36:45.790Z,79.99
2018-12-02T18:39:15.902Z,79.50
2018-12-02T18:41:48.540Z,79.11
2018-12-02T18:44:18.174Z,79.48
2018-12-02T18:46:47.216Z,79.12
2018-12-02T18:49:16.721Z,79.05
2018-12-02T18:51:45.672Z,79.20
2018-12-02T18:54:14.526Z,79.07
2018-12-02T18:56:44.042Z,78.80
2018-12-02T18:59:13.435Z,78.89
2018-12-02T19:01:42.281Z,78.72
2018-12-02T19:04:11.062Z,79.23
2018-12-02T19:06:39.920Z,78.80
2018-12-02T19:09:13.310Z,78.88
2018-12-02T19:11:42.611Z,79.13
2018-12-02T19:14:11.412Z,78.98
2018-12-02T19:16:40.219Z,79.15
2018-12-02T19:19:09.413Z,78.89
2018-12-02T19:21:38.175Z,78.49
2018-12-02T19:24:08.118Z,79.09
2018-12-02T19:26:36.954Z,79.03
2018-12-02T19:29:06.804Z,78.80
2018-12-02T19:31:35.661Z,78.53
2018-12-02T19:34:05.580Z,78.44
2018-12-02T19:36:36.699Z,79.22
2018-12-02T19:39:10.179Z,78.56
2018-12-02T19:41:38.995Z,79.45
2018-12-02T19:44:07.950Z,78.90
2018-12-02T19:46:36.752Z,79.76
2018-12-02T19:49:06.319Z,79.58
2018-12-02T19:51:35.114Z,79.83
2018-12-02T19:54:03.951Z,80.14
2018-12-02T19:56:32.729Z,80.37
2018-12-02T19:59:01.869Z,80.06
2018-12-02T20:01:30.647Z,80.36
2018-12-02T20:03:59.475Z,80.82
2018-12-02T20:06:28.257Z,80.64
2018-12-02T20:08:57.064Z,80.34
2018-12-02T20:11:25.880Z,80.27
2018-12-02T20:13:54.641Z,80.16
2018-12-02T20:16:24.029Z,80.22
2018-12-02T20:18:52.864Z,79.74
2018-12-02T20:21:23.263Z,79.66
2018-12-02T20:23:57.200Z,80.23
2018-12-02T20:26:26.190Z,80.33
2018-12-02T20:28:57.700Z,80.14
2018-12-02T20:31:28.301Z,80.12
2018-12-02T20:33:57.118Z,80.54
2018-12-02T20:36:25.969Z,80.22
2018-12-02T20:38:56.487Z,80.84
2018-12-02T20:41:25.445Z,81.04
2018-12-02T20:43:55.031Z,80.76
2018-12-02T20:46:23.874Z,80.89
2018-12-02T20:48:53.023Z,80.05
2018-12-02T20:51:21.809Z,80.66
2018-12-02T20:53:50.690Z,80.38
2018-12-02T20:56:19.503Z,81.29
2018-12-02T20:58:48.336Z,81.57
2018-12-02T21:01:17.191Z,81.83
2018-12-02T21:03:47.687Z,81.66
2018-12-02T21:06:20.931Z,81.36
2018-12-02T21:08:49.991Z,81.56
2018-12-02T21:11:18.849Z,81.53
2018-12-02T21:13:47.700Z,81.27
2018-12-02T21:16:16.490Z,81.05
2018-12-02T21:18:45.266Z,81.22
2018-12-02T21:21:14.056Z,81.00
2018-12-02T21:23:42.914Z,81.41
2018-12-02T21:26:12.545Z,80.23
2018-12-02T21:28:42.252Z,80.25
2018-12-02T21:31:11.127Z,80.25
2018-12-02T21:33:39.916Z,80.32
2018-12-02T21:36:08.731Z,79.89
2018-12-02T21:38:37.705Z,80.39
2018-12-02T21:41:06.902Z,79.50
2018-12-02T21:43:35.724Z,80.18
2018-12-02T21:46:05.087Z,79.70
2018-12-02T21:48:33.926Z,79.86
2018-12-02T21:51:02.740Z,79.33
2018-12-02T21:53:31.736Z,79.83
2018-12-02T21:56:00.505Z,79.13
2018-12-02T21:58:29.333Z,79.64
2018-12-02T22:01:03.332Z,79.25
2018-12-02T22:03:32.180Z,78.96
2018-12-02T22:06:01.113Z,78.85
2018-12-02T22:08:29.930Z,79.83
2018-12-02T22:10:58.719Z,79.92
2018-12-02T22:13:27.507Z,80.12
2018-12-02T22:15:56.342Z,80.00
2018-12-02T22:18:25.182Z,80.80
2018-12-02T22:20:54.360Z,80.66
2018-12-02T22:23:23.128Z,80.48
2018-12-02T22:25:51.912Z,80.40
2018-12-02T22:28:20.665Z,79.75
2018-12-02T22:30:49.449Z,80.14
2018-12-02T22:33:18.253Z,79.76
2018-12-02T22:35:47.082Z,79.95
2018-12-02T22:38:15.879Z,79.65
2018-12-02T22:40:44.704Z,80.05
2018-12-02T22:43:13.517Z,80.06
2018-12-02T22:45:42.372Z,81.02
2018-12-02T22:48:11.244Z,80.76
2018-12-02T22:50:40.061Z,81.03
2018-12-02T22:53:09.156Z,80.95
2018-12-02T22:55:37.941Z,81.10
2018-12-02T22:58:07.065Z,80.35
2018-12-02T23:00:41.538Z,79.68
2018-12-02T23:03:16.367Z,79.60
2018-12-02T23:05:46.249Z,79.24
2018-12-02T23:08:15.248Z,78.07
2018-12-02T23:10:44.025Z,78.33
2018-12-02T23:13:12.992Z,78.46
2018-12-02T23:15:42.467Z,78.44
2018-12-02T23:18:12.659Z,78.32
2018-12-02T23:20:41.633Z,78.58
2018-12-02T23:23:10.435Z,78.12
2018-12-02T23:25:39.288Z,77.86
2018-12-02T23:28:08.467Z,77.56
2018-12-02T23:30:37.466Z,77.77
2018-12-02T23:33:07.228Z,78.09
2018-12-02T23:35:36.139Z,78.03
2018-12-02T23:38:05.490Z,78.15
2018-12-02T23:40:34.398Z,77.86
2018-12-02T23:43:03.315Z,78.47
2018-12-02T23:45:32.130Z,78.58
2018-12-02T23:48:00.955Z,78.71
2018-12-02T23:50:29.847Z,78.72
2018-12-02T23:52:58.741Z,78.39
2018-12-02T23:55:27.609Z,78.61
2018-12-02T23:57:56.820Z,78.00
